createdAt,value
2023-01-18T00:00:34.848Z,0.50
2023-01-18T00:03:02.806Z,0.60
2023-01-18T00:05:30.723Z,0.70
2023-01-18T00:07:59.996Z,0.50
2023-01-18T00:10:28.058Z,0.60
2023-01-18T00:12:56.529Z,0.60
2023-01-18T00:15:24.660Z,0.40
2023-01-18T00:17:52.609Z,0.40
2023-01-18T00:20:22.874Z,0.50
2023-01-18T00:22:51.661Z,0.30
2023-01-18T00:25:23.136Z,0.40
2023-01-18T00:27:52.707Z,0.40
2023-01-18T00:30:22.504Z,0.30
2023-01-18T00:32:53.368Z,0.40
2023-01-18T00:35:22.195Z,0.40
2023-01-18T00:37:51.512Z,0.40
2023-01-18T00:40:21.806Z,0.40
2023-01-18T00:43:07.218Z,0.50
2023-01-18T00:45:35.317Z,0.40
2023-01-18T00:48:03.587Z,0.30
2023-01-18T00:50:31.512Z,0.40
2023-01-18T00:53:00.171Z,0.50
2023-01-18T00:55:30.002Z,0.50
2023-01-18T00:57:58.368Z,0.50
2023-01-18T01:00:27.110Z,0.40
2023-01-18T01:02:55.871Z,0.40
2023-01-18T01:05:44.557Z,0.40
2023-01-18T01:08:17.374Z,0.40
2023-01-18T01:10:48.719Z,0.50
2023-01-18T01:13:36.067Z,0.50
2023-01-18T01:16:23.842Z,0.50
2023-01-18T01:19:09.692Z,0.50
2023-01-18T01:21:55.573Z,0.50
2023-01-18T01:24:41.069Z,0.50
2023-01-18T01:27:11.209Z,0.60
2023-01-18T01:29:39.543Z,0.70
2023-01-18T01:32:07.546Z,0.60
2023-01-18T01:34:35.899Z,0.70
2023-01-18T01:37:04.390Z,0.70
2023-01-18T01:39:32.380Z,0.80
2023-01-18T01:42:00.323Z,0.80
2023-01-18T01:44:46.201Z,0.70
2023-01-18T01:47:32.129Z,0.80
2023-01-18T01:50:03.927Z,0.80
2023-01-18T01:52:37.359Z,0.80
2023-01-18T01:55:11.809Z,0.80
2023-01-18T01:57:44.004Z,0.80
2023-01-18T02:00:16.345Z,0.80
2023-01-18T02:02:47.279Z,0.80
2023-01-18T02:05:18.048Z,0.80
2023-01-18T02:07:46.626Z,0.80
2023-01-18T02:10:14.578Z,0.80
2023-01-18T02:12:45.121Z,0.70
2023-01-18T02:15:14.683Z,0.70
2023-01-18T02:17:54.668Z,0.70
2023-01-18T02:20:55.032Z,0.60
2023-01-18T02:24:15.195Z,0.40
2023-01-18T02:26:53.244Z,0.30
2023-01-18T02:29:32.536Z,0.30
2023-01-18T02:32:12.110Z,0.40
2023-01-18T02:34:43.936Z,0.50
2023-01-18T02:37:19.927Z,0.50
2023-01-18T02:39:59.707Z,0.40
2023-01-18T02:42:47.011Z,0.40
2023-01-18T02:45:39.647Z,0.50
2023-01-18T02:48:09.296Z,0.20
2023-01-18T02:50:38.597Z,0.20
2023-01-18T02:53:06.496Z,0.00
2023-01-18T02:55:41.667Z,0.00
2023-01-18T02:58:14.801Z,0.00
2023-01-18T03:00:48.243Z,0.00
2023-01-18T03:03:20.155Z,0.20
2023-01-18T03:05:49.223Z,-0.20
2023-01-18T03:08:22.696Z,-0.40
2023-01-18T03:11:00.134Z,-0.50
2023-01-18T03:13:37.752Z,-0.60
2023-01-18T03:16:14.036Z,-0.80
2023-01-18T03:19:01.662Z,-0.90
2023-01-18T03:21:41.730Z,-0.80
2023-01-18T03:24:10.266Z,-0.70
2023-01-18T03:26:41.630Z,-0.50
2023-01-18T03:29:29.215Z,-0.40
2023-01-18T03:32:20.528Z,-0.10
2023-01-18T03:34:53.550Z,0.10
2023-01-18T03:37:26.388Z,0.10
2023-01-18T03:39:58.200Z,0.20
2023-01-18T03:42:31.805Z,0.30
2023-01-18T03:45:07.196Z,0.40
2023-01-18T03:47:36.634Z,0.40
2023-01-18T03:50:05.522Z,0.40
2023-01-18T03:52:41.636Z,0.30
2023-01-18T03:55:15.379Z,0.40
2023-01-18T03:57:47.461Z,0.50
2023-01-18T04:00:16.140Z,0.60
2023-01-18T04:02:48.024Z,0.50
2023-01-18T04:05:16.717Z,0.50
2023-01-18T04:07:44.683Z,0.40
2023-01-18T04:10:13.271Z,0.40
2023-01-18T04:12:41.277Z,0.60
2023-01-18T04:15:10.380Z,0.40
2023-01-18T04:17:39.602Z,0.40
2023-01-18T04:20:10.637Z,0.30
2023-01-18T04:22:38.535Z,0.30
2023-01-18T04:25:07.215Z,0.50
2023-01-18T04:27:35.128Z,0.60
2023-01-18T04:30:03.104Z,0.50
2023-01-18T04:32:31.054Z,0.40
2023-01-18T04:34:59.013Z,0.40
2023-01-18T04:37:30.513Z,0.30
2023-01-18T04:39:58.701Z,0.20
2023-01-18T04:42:26.671Z,0.20
2023-01-18T04:44:54.741Z,0.10
2023-01-18T04:47:23.191Z,0.10
2023-01-18T04:49:51.344Z,0.40
2023-01-18T04:52:19.444Z,0.30
2023-01-18T04:54:48.948Z,0.40
2023-01-18T04:57:16.959Z,0.50
2023-01-18T04:59:46.555Z,0.50
2023-01-18T05:02:16.128Z,0.30
2023-01-18T05:04:44.933Z,0.20
2023-01-18T05:07:13.532Z,0.20
2023-01-18T05:09:41.452Z,0.20
2023-01-18T05:12:10.999Z,0.30
2023-01-18T05:14:38.988Z,0.50
2023-01-18T05:17:07.363Z,0.30
2023-01-18T05:19:35.474Z,0.20
2023-01-18T05:22:03.514Z,0.30
2023-01-18T05:24:31.502Z,0.50
2023-01-18T05:26:59.811Z,0.50
2023-01-18T05:29:29.211Z,0.30
2023-01-18T05:31:57.280Z,0.20
2023-01-18T05:34:25.254Z,0.20
2023-01-18T05:36:53.279Z,0.20
2023-01-18T05:39:21.242Z,0.20
2023-01-18T05:41:49.179Z,0.30
2023-01-18T05:44:17.166Z,0.50
2023-01-18T05:46:46.457Z,0.60
2023-01-18T05:49:14.783Z,0.60
2023-01-18T05:51:42.747Z,0.60
2023-01-18T05:54:11.868Z,0.60
2023-01-18T05:56:39.845Z,0.60
2023-01-18T05:59:07.824Z,0.60
2023-01-18T06:01:35.883Z,0.40
2023-01-18T06:04:05.296Z,0.40
2023-01-18T06:06:34.751Z,0.50
2023-01-18T06:09:03.301Z,0.60
2023-01-18T06:11:31.310Z,0.50
2023-01-18T06:13:59.226Z,0.40
2023-01-18T06:16:27.342Z,0.60
2023-01-18T06:18:55.457Z,0.70
2023-01-18T06:21:24.732Z,0.70
2023-01-18T06:23:52.608Z,0.70
2023-01-18T06:26:20.668Z,0.70
2023-01-18T06:28:48.603Z,0.70
2023-01-18T06:31:16.636Z,0.70
2023-01-18T06:33:44.551Z,0.60
2023-01-18T06:36:12.537Z,0.60
2023-01-18T06:38:42.302Z,0.60
2023-01-18T06:41:10.216Z,0.60
2023-01-18T06:43:38.138Z,0.70
2023-01-18T06:46:08.209Z,0.80
2023-01-18T06:48:36.319Z,0.70
2023-01-18T06:51:04.411Z,0.60
2023-01-18T06:53:32.301Z,0.70
2023-01-18T06:56:02.691Z,0.80
2023-01-18T06:58:32.640Z,0.80
2023-01-18T07:01:01.834Z,0.90
2023-01-18T07:03:31.367Z,0.90
2023-01-18T07:06:01.007Z,0.80
2023-01-18T07:08:31.282Z,0.70
2023-01-18T07:11:04.677Z,0.60
2023-01-18T07:13:32.853Z,0.50
2023-01-18T07:16:02.003Z,0.40
2023-01-18T07:18:31.241Z,0.40
2023-01-18T07:21:00.928Z,0.40
2023-01-18T07:23:29.494Z,0.40
2023-01-18T07:26:06.977Z,0.40
2023-01-18T07:28:36.372Z,0.50
2023-01-18T07:31:07.931Z,0.30
2023-01-18T07:33:36.686Z,0.40
2023-01-18T07:36:06.305Z,0.60
2023-01-18T07:38:34.686Z,0.60
2023-01-18T07:41:06.231Z,0.80
2023-01-18T07:43:34.915Z,0.80
2023-01-18T07:46:04.198Z,0.80
2023-01-18T07:48:33.111Z,0.80
2023-01-18T07:51:02.906Z,0.60
2023-01-18T07:53:32.093Z,0.50
2023-01-18T07:56:00.855Z,0.60
2023-01-18T07:58:30.618Z,0.60
2023-01-18T08:01:04.238Z,0.70
2023-01-18T08:03:32.223Z,0.70
2023-01-18T08:06:00.724Z,0.60
2023-01-18T08:08:29.025Z,0.60
2023-01-18T08:10:58.145Z,0.60
2023-01-18T08:13:27.285Z,0.60
2023-01-18T08:15:59.498Z,0.50
2023-01-18T08:18:27.543Z,0.30
2023-01-18T08:20:55.585Z,0.50
2023-01-18T08:23:24.095Z,0.50
2023-01-18T08:25:52.118Z,0.60
2023-01-18T08:28:20.309Z,0.60
2023-01-18T08:30:49.391Z,0.50
2023-01-18T08:33:19.078Z,0.40
2023-01-18T08:35:49.028Z,0.40
2023-01-18T08:38:17.988Z,0.70
2023-01-18T08:40:46.075Z,0.50
2023-01-18T08:43:14.092Z,0.60
2023-01-18T08:45:42.060Z,0.70
2023-01-18T08:48:12.195Z,0.60
2023-01-18T08:50:42.955Z,0.50
2023-01-18T08:53:11.042Z,0.70
2023-01-18T08:55:40.892Z,0.70
2023-01-18T08:58:09.155Z,0.80
2023-01-18T09:00:37.207Z,0.60
2023-01-18T09:03:06.719Z,0.50
2023-01-18T09:05:36.392Z,0.30
2023-01-18T09:08:05.973Z,0.50
2023-01-18T09:10:37.341Z,0.70
2023-01-18T09:13:05.576Z,0.80
2023-01-18T09:15:34.240Z,0.70
2023-01-18T09:18:06.072Z,0.80
2023-01-18T09:20:36.498Z,0.90
2023-01-18T09:23:10.680Z,0.50
2023-01-18T09:25:39.221Z,0.30
2023-01-18T09:28:07.265Z,0.30
2023-01-18T09:30:35.853Z,0.40
2023-01-18T09:33:03.772Z,0.50
2023-01-18T09:35:33.022Z,0.30
2023-01-18T09:38:00.947Z,0.30
2023-01-18T09:40:40.447Z,0.10
2023-01-18T09:43:16.896Z,0.30
2023-01-18T09:45:48.821Z,0.50
2023-01-18T09:48:28.826Z,0.70
2023-01-18T09:51:00.588Z,0.60
2023-01-18T09:53:40.957Z,0.60
2023-01-18T09:56:17.387Z,0.50
2023-01-18T09:58:59.197Z,0.70
2023-01-18T10:01:32.394Z,0.80
2023-01-18T10:04:05.061Z,1.00
2023-01-18T10:06:44.029Z,1.00
2023-01-18T10:09:15.798Z,0.80
2023-01-18T10:11:51.038Z,0.80
2023-01-18T10:14:23.685Z,0.90
2023-01-18T10:16:57.140Z,0.90
2023-01-18T10:19:28.432Z,1.00
2023-01-18T10:22:04.147Z,1.30
2023-01-18T10:24:45.133Z,1.10
2023-01-18T10:27:47.172Z,1.10
2023-01-18T10:30:38.090Z,0.80
2023-01-18T10:33:16.982Z,0.70
2023-01-18T10:35:48.060Z,0.80
2023-01-18T10:38:19.963Z,0.90
2023-01-18T10:40:52.507Z,0.90
2023-01-18T10:43:25.100Z,1.10
2023-01-18T10:45:54.413Z,0.90
2023-01-18T10:48:28.908Z,1.00
2023-01-18T10:50:59.600Z,1.10
2023-01-18T10:53:31.411Z,1.10
2023-01-18T10:56:03.876Z,1.40
2023-01-18T10:58:39.380Z,1.20
2023-01-18T11:01:13.729Z,1.30
2023-01-18T11:03:47.578Z,1.30
2023-01-18T11:06:17.262Z,1.50
2023-01-18T11:08:45.481Z,1.70
2023-01-18T11:11:48.988Z,1.70
2023-01-18T11:14:27.488Z,1.70
2023-01-18T11:17:00.756Z,1.90
2023-01-18T11:19:28.912Z,2.00
2023-01-18T11:21:57.323Z,2.00
2023-01-18T11:24:28.939Z,1.70
2023-01-18T11:27:01.629Z,1.80
2023-01-18T11:29:34.171Z,1.90
2023-01-18T11:32:05.388Z,2.20
2023-01-18T11:34:35.793Z,2.00
2023-01-18T11:37:04.336Z,1.70
2023-01-18T11:39:34.928Z,1.50
2023-01-18T11:42:23.584Z,1.70
2023-01-18T11:45:04.690Z,2.30
2023-01-18T11:47:42.515Z,2.30
2023-01-18T11:50:24.832Z,2.30
2023-01-18T11:52:57.424Z,2.50
2023-01-18T11:55:33.358Z,2.60
2023-01-18T11:58:01.916Z,2.60
2023-01-18T12:00:46.191Z,2.40
2023-01-18T12:03:38.243Z,2.20
2023-01-18T12:06:16.062Z,2.10
2023-01-18T12:09:04.184Z,2.50
2023-01-18T12:11:47.552Z,2.80
2023-01-18T12:14:29.228Z,2.50
2023-01-18T12:17:09.177Z,2.50
2023-01-18T12:19:53.922Z,2.70
2023-01-18T12:22:43.779Z,2.80
2023-01-18T12:25:43.192Z,2.60
2023-01-18T12:28:26.941Z,2.50
2023-01-18T12:31:06.727Z,2.20
2023-01-18T12:33:45.213Z,2.30
2023-01-18T12:36:42.418Z,2.20
2023-01-18T12:39:26.247Z,2.10
2023-01-18T12:41:58.434Z,2.00
2023-01-18T12:44:47.749Z,2.20
2023-01-18T12:47:32.717Z,1.80
2023-01-18T12:50:06.146Z,1.70
2023-01-18T12:52:40.551Z,1.70
2023-01-18T12:55:16.471Z,1.50
2023-01-18T12:57:46.677Z,1.40
2023-01-18T13:00:20.114Z,1.60
2023-01-18T13:02:51.803Z,1.70
2023-01-18T13:05:33.043Z,1.70
2023-01-18T13:08:06.391Z,1.80
2023-01-18T13:10:36.184Z,1.80
2023-01-18T13:13:06.199Z,1.90
2023-01-18T13:15:43.140Z,2.30
2023-01-18T13:18:16.779Z,2.40
2023-01-18T13:20:57.625Z,2.20
2023-01-18T13:23:33.345Z,2.30
2023-01-18T13:26:14.462Z,2.60
2023-01-18T13:28:43.154Z,2.40
2023-01-18T13:31:11.698Z,2.40
2023-01-18T13:33:44.792Z,2.20
2023-01-18T13:36:17.243Z,2.50
2023-01-18T13:38:51.669Z,2.40
2023-01-18T13:41:25.149Z,2.30
2023-01-18T13:44:05.380Z,2.10
2023-01-18T13:46:36.484Z,2.30
2023-01-18T13:49:37.295Z,2.40
2023-01-18T13:55:25.295Z,2.40
2023-01-18T13:57:55.658Z,2.30
2023-01-18T14:00:25.474Z,2.60
2023-01-18T14:02:57.448Z,2.30
2023-01-18T14:05:27.625Z,2.60
2023-01-18T14:07:58.696Z,2.90
2023-01-18T14:10:33.126Z,2.70
2023-01-18T14:13:03.272Z,2.60
2023-01-18T14:15:45.347Z,2.70
2023-01-18T14:18:20.761Z,2.50
2023-01-18T14:21:12.266Z,2.30
2023-01-18T14:24:00.137Z,2.10
2023-01-18T14:26:31.883Z,2.10
2023-01-18T14:29:03.792Z,2.10
2023-01-18T14:31:34.190Z,2.00
2023-01-18T14:34:24.896Z,2.00
2023-01-18T14:36:53.728Z,1.90
2023-01-18T14:39:22.652Z,2.00
2023-01-18T14:41:56.165Z,1.80
2023-01-18T14:44:26.919Z,1.80
2023-01-18T14:46:57.375Z,1.80
2023-01-18T14:49:29.952Z,1.80
2023-01-18T14:51:59.392Z,1.80
2023-01-18T14:54:27.427Z,1.70
2023-01-18T14:57:04.121Z,1.70
2023-01-18T14:59:33.320Z,1.80
2023-01-18T15:02:02.800Z,2.00
2023-01-18T15:04:35.299Z,2.30
2023-01-18T15:07:06.152Z,2.20
2023-01-18T15:09:37.064Z,2.00
2023-01-18T15:12:11.423Z,1.90
2023-01-18T15:14:43.923Z,2.00
2023-01-18T15:17:21.406Z,1.90
2023-01-18T15:19:52.969Z,2.00
2023-01-18T15:22:25.007Z,2.10
2023-01-18T15:24:53.099Z,2.20
2023-01-18T15:27:23.259Z,2.00
2023-01-18T15:29:54.461Z,2.00
2023-01-18T15:32:24.207Z,2.10
2023-01-18T15:34:54.410Z,2.20
2023-01-18T15:37:25.724Z,2.10
2023-01-18T15:40:00.584Z,2.10
2023-01-18T15:42:36.019Z,2.00
2023-01-18T15:45:04.808Z,2.20
2023-01-18T15:47:37.624Z,2.10
2023-01-18T15:50:16.849Z,2.20
2023-01-18T15:52:47.591Z,2.20
2023-01-18T15:55:24.036Z,2.30
2023-01-18T15:57:58.883Z,2.10
2023-01-18T16:00:34.439Z,2.10
2023-01-18T16:03:04.477Z,1.80
2023-01-18T16:05:32.783Z,1.80
2023-01-18T16:08:22.647Z,1.70
2023-01-18T16:10:53.627Z,1.80
2023-01-18T16:13:36.901Z,1.90
2023-01-18T16:16:18.912Z,2.00
2023-01-18T16:18:49.618Z,1.90
2023-01-18T16:21:24.599Z,1.90
2023-01-18T16:23:53.431Z,1.90
2023-01-18T16:26:26.658Z,1.80
2023-01-18T16:29:05.891Z,1.90
2023-01-18T16:31:34.846Z,1.90
2023-01-18T16:34:04.107Z,1.90
2023-01-18T16:36:37.925Z,1.90
2023-01-18T16:39:09.780Z,1.90
2023-01-18T16:41:38.085Z,1.90
2023-01-18T16:44:07.430Z,2.00
2023-01-18T16:46:36.256Z,2.00
2023-01-18T16:49:04.388Z,1.90
2023-01-18T16:51:32.373Z,1.80
2023-01-18T16:54:01.096Z,1.70
2023-01-18T16:56:29.096Z,1.70
2023-01-18T16:58:57.064Z,1.70
2023-01-18T17:01:26.543Z,1.60
2023-01-18T17:03:54.532Z,1.50
2023-01-18T17:06:23.522Z,1.40
2023-01-18T17:08:51.705Z,1.40
2023-01-18T17:11:19.635Z,1.30
2023-01-18T17:13:48.284Z,1.30
2023-01-18T17:16:19.546Z,1.30
2023-01-18T17:18:50.057Z,1.30
2023-01-18T17:21:18.007Z,1.20
2023-01-18T17:23:45.964Z,1.20
2023-01-18T17:26:16.583Z,1.00
2023-01-18T17:28:45.446Z,0.80
2023-01-18T17:31:13.435Z,0.90
2023-01-18T17:33:42.945Z,1.00
2023-01-18T17:36:12.413Z,1.00
2023-01-18T17:38:41.410Z,1.00
2023-01-18T17:41:22.858Z,1.00
2023-01-18T17:43:54.843Z,1.00
2023-01-18T17:46:22.846Z,0.70
2023-01-18T17:48:50.823Z,0.70
2023-01-18T17:51:20.927Z,0.60
2023-01-18T17:53:48.817Z,0.40
2023-01-18T17:56:18.160Z,0.40
2023-01-18T17:58:47.053Z,0.20
2023-01-18T18:01:16.663Z,0.30
2023-01-18T18:03:48.850Z,0.40
2023-01-18T18:06:30.319Z,0.50
2023-01-18T18:09:01.387Z,0.50
2023-01-18T18:11:29.652Z,0.40
2023-01-18T18:13:58.906Z,0.60
2023-01-18T18:16:27.612Z,0.80
2023-01-18T18:18:57.122Z,0.90
2023-01-18T18:21:27.209Z,0.90
2023-01-18T18:23:55.483Z,0.70
2023-01-18T18:26:25.023Z,0.80
2023-01-18T18:28:52.944Z,0.70
2023-01-18T18:31:21.572Z,0.50
2023-01-18T18:33:49.639Z,0.60
2023-01-18T18:36:17.739Z,0.70
2023-01-18T18:38:45.878Z,0.70
2023-01-18T18:41:14.137Z,0.30
2023-01-18T18:43:44.051Z,0.10
2023-01-18T18:46:12.326Z,0.20
2023-01-18T18:48:40.259Z,0.40
2023-01-18T18:51:08.244Z,0.30
2023-01-18T18:53:38.419Z,0.20
2023-01-18T18:56:09.412Z,0.30
2023-01-18T18:58:37.796Z,0.40
2023-01-18T19:01:08.573Z,0.30
2023-01-18T19:03:36.728Z,0.40
2023-01-18T19:06:04.768Z,0.50
2023-01-18T19:08:32.675Z,0.60
2023-01-18T19:11:00.634Z,0.70
2023-01-18T19:13:28.864Z,0.70
2023-01-18T19:15:56.930Z,0.60
2023-01-18T19:18:26.447Z,0.40
2023-01-18T19:20:54.408Z,0.40
2023-01-18T19:23:22.369Z,0.20
2023-01-18T19:25:50.752Z,0.20
2023-01-18T19:28:19.174Z,0.30
2023-01-18T19:30:47.325Z,0.50
2023-01-18T19:33:15.599Z,0.50
2023-01-18T19:35:46.419Z,0.30
2023-01-18T19:38:14.735Z,0.20
2023-01-18T19:40:42.892Z,0.20
2023-01-18T19:43:10.795Z,0.20
2023-01-18T19:45:39.191Z,0.10
2023-01-18T19:48:07.594Z,0.20
2023-01-18T19:50:35.521Z,0.20
2023-01-18T19:53:04.796Z,0.10
2023-01-18T19:55:32.733Z,-0.10
2023-01-18T19:58:02.061Z,-0.20
2023-01-18T20:00:30.491Z,-0.20
2023-01-18T20:02:59.611Z,-0.40
2023-01-18T20:05:28.286Z,-0.40
2023-01-18T20:07:56.878Z,-0.30
2023-01-18T20:10:26.202Z,-0.50
2023-01-18T20:12:54.115Z,-0.40
2023-01-18T20:15:22.960Z,-0.50
2023-01-18T20:17:50.955Z,-0.40
2023-01-18T20:20:31.291Z,-0.50
2023-01-18T20:23:00.670Z,-0.30
2023-01-18T20:25:30.477Z,-0.20
2023-01-18T20:27:58.493Z,-0.30
2023-01-18T20:30:26.407Z,-0.20
2023-01-18T20:32:54.355Z,0.00
2023-01-18T20:35:22.816Z,-0.10
2023-01-18T20:37:52.068Z,-0.20
2023-01-18T20:40:20.390Z,-0.40
2023-01-18T20:42:49.646Z,-0.60
2023-01-18T20:45:17.724Z,-0.60
2023-01-18T20:47:45.709Z,-0.50
2023-01-18T20:50:13.626Z,-0.50
2023-01-18T20:52:41.844Z,-0.50
2023-01-18T20:55:12.959Z,-0.60
2023-01-18T20:57:40.915Z,-0.60
2023-01-18T21:00:12.537Z,-0.70
2023-01-18T21:02:42.151Z,-0.90
2023-01-18T21:05:10.547Z,-1.00
2023-01-18T21:07:40.734Z,-1.00
2023-01-18T21:10:10.909Z,-1.00
2023-01-18T21:12:38.833Z,-1.00
2023-01-18T21:15:09.052Z,-1.10
2023-01-18T21:17:39.581Z,-1.30
2023-01-18T21:20:08.592Z,-1.20
2023-01-18T21:22:36.523Z,-1.20
2023-01-18T21:25:05.235Z,-1.20
2023-01-18T21:27:33.165Z,-1.30
2023-01-18T21:30:01.101Z,-1.20
2023-01-18T21:32:29.085Z,-1.20
2023-01-18T21:34:58.391Z,-1.30
2023-01-18T21:37:27.369Z,-1.30
2023-01-18T21:39:58.166Z,-1.30
2023-01-18T21:42:42.880Z,-1.30
2023-01-18T21:45:29.485Z,-1.30
2023-01-18T21:47:59.482Z,-1.30
2023-01-18T21:50:46.607Z,-1.30
2023-01-18T21:53:29.535Z,-1.30
2023-01-18T21:55:57.489Z,-1.40
2023-01-18T21:58:42.924Z,-1.40
2023-01-18T22:01:12.179Z,-1.40
2023-01-18T22:03:41.335Z,-1.40
2023-01-18T22:06:12.116Z,-1.40
2023-01-18T22:08:40.153Z,-1.60
2023-01-18T22:11:08.141Z,-1.50
2023-01-18T22:13:36.532Z,-1.40
2023-01-18T22:16:06.568Z,-1.50
2023-01-18T22:18:34.534Z,-1.50
2023-01-18T22:21:02.462Z,-1.40
2023-01-18T22:23:31.777Z,-1.50
2023-01-18T22:25:59.715Z,-1.50
2023-01-18T22:28:28.068Z,-1.50
2023-01-18T22:30:56.037Z,-1.60
2023-01-18T22:33:24.044Z,-1.60
2023-01-18T22:35:57.455Z,-1.60
2023-01-18T22:38:25.417Z,-1.60
2023-01-18T22:41:03.673Z,-1.80
2023-01-18T22:43:31.911Z,-2.20
2023-01-18T22:46:00.418Z,-2.20
2023-01-18T22:48:28.893Z,-2.00
2023-01-18T22:50:58.083Z,-2.20
2023-01-18T22:53:27.979Z,-2.20
2023-01-18T22:55:55.987Z,-2.20
2023-01-18T22:58:25.349Z,-2.20
2023-01-18T23:00:53.339Z,-2.00
2023-01-18T23:03:22.208Z,-1.90
2023-01-18T23:05:54.750Z,-1.90
2023-01-18T23:08:23.206Z,-2.00
2023-01-18T23:10:56.974Z,-2.00
2023-01-18T23:13:26.444Z,-2.00
2023-01-18T23:16:12.084Z,-2.00
2023-01-18T23:18:40.020Z,-2.10
2023-01-18T23:21:08.010Z,-2.10
2023-01-18T23:23:35.954Z,-2.30
2023-01-18T23:26:03.991Z,-2.40
2023-01-18T23:28:42.069Z,-2.50
2023-01-18T23:31:11.001Z,-2.60
2023-01-18T23:33:40.116Z,-2.60
2023-01-18T23:36:09.530Z,-2.50
2023-01-18T23:38:55.007Z,-2.30
2023-01-18T23:41:40.489Z,-2.20
2023-01-18T23:44:27.235Z,-2.00
2023-01-18T23:47:12.721Z,-1.80
2023-01-18T23:49:58.300Z,-1.70
2023-01-18T23:52:43.794Z,-1.60
2023-01-18T23:55:11.975Z,-1.60
2023-01-18T23:57:40.041Z,-1.60
